Orleans, Canada
Current Conditions -  °F | °C
As of 12:00 PM on Tuesday 21 Oct 2014 (Local Time) from CYND Reporting Station
Light Rain Light Rain  
Wind Chill: 37°   Ceiling: 2000
Heat Index: 43°   Visibility: 5mi
Dew Point: 39°   Wind: 9mph
Humidity: 87%   Direction: 40°NE
Pressure: 30.03"   Gusts: NA
Location:  45.47°N, 75.52°W
Report Text: CYND 211600Z 04008KT 5SM -RA BR FEW009 OVC020 06/04 A3003 RMK SF1SC7 SLP172
Loading
Personal Weather Stations






























Interactive Weather Map
Tropical Storm Tracking
New forecast layout! Learn more

10-Day Weather Forecast

Advertisements
Track Severe Weather on mobile